Time;durP1;ratioP1;P1;durP2;ratioP2;P2;SDS_P1;SDS_P2;PMS_P1;PMS_P2;Temp;Humidity;BMP_temperature;BMP_pressure;BME280_temperature;BME280_humidity;BME280_pressure;Samples;Min_cycle;Max_cycle;Signal;HPM_P1;HPM_P2
2022/08/26 00:01:42;;;;;;;0.20;0.20;;;;;;;20.05;57.54;100910.25;5126560;28;20023;-64
2022/08/26 00:04:08;;;;;;;0.30;0.30;;;;;;;20.06;57.27;100913.75;5125425;28;20032;-64
2022/08/26 00:06:34;;;;;;;0.30;0.30;;;;;;;20.06;57.60;100909.31;5126242;28;20023;-64
2022/08/26 00:09:00;;;;;;;0.20;0.20;;;;;;;20.09;57.69;100904.84;5126468;28;20049;-64
2022/08/26 00:11:26;;;;;;;0.35;0.35;;;;;;;20.10;58.08;100915.34;5126169;28;20023;-64
2022/08/26 00:13:51;;;;;;;0.20;0.20;;;;;;;20.12;58.43;100913.50;5126358;28;20476;-64
2022/08/26 00:16:17;;;;;;;0.20;0.20;;;;;;;20.11;58.66;100911.75;5126163;28;20027;-64
2022/08/26 00:18:42;;;;;;;0.20;0.20;;;;;;;20.11;59.01;100908.28;5126246;28;20023;-64
2022/08/26 00:21:08;;;;;;;4.47;2.83;;;;;;;20.08;59.06;100918.97;5126163;28;20031;-64
2022/08/26 00:23:35;;;;;;;0.20;0.20;;;;;;;20.11;59.95;100913.56;5126127;28;20091;-63
2022/08/26 00:26:01;;;;;;;1.48;1.40;;;;;;;20.08;59.61;100911.06;5126159;28;20030;-65
2022/08/26 00:28:26;;;;;;;0.30;0.30;;;;;;;20.06;59.57;100906.69;5126097;28;20035;-65
2022/08/26 00:30:52;;;;;;;0.20;0.20;;;;;;;20.09;59.80;100907.50;5126047;28;20020;-65
2022/08/26 00:33:19;;;;;;;0.20;0.20;;;;;;;20.09;59.23;100907.50;5126250;28;20030;-65
2022/08/26 00:35:46;;;;;;;3.00;1.00;;;;;;;20.14;58.88;100909.03;5126132;28;20019;-65
2022/08/26 00:38:12;;;;;;;0.20;0.20;;;;;;;20.18;58.89;100912.38;5125883;28;20503;-65
2022/08/26 00:40:47;;;;;;;0.20;0.20;;;;;;;20.18;58.99;100905.34;5125966;28;20065;-65
2022/08/26 00:43:14;;;;;;;0.20;0.20;;;;;;;20.23;58.32;100905.16;5126017;28;20053;-65
2022/08/26 00:45:59;;;;;;;3.35;1.55;;;;;;;20.28;58.07;100905.81;5125556;28;20055;-65
2022/08/26 00:48:28;;;;;;;0.20;0.20;;;;;;;20.30;58.35;100911.88;5125847;28;20147;-63
2022/08/26 00:51:00;;;;;;;0.52;0.52;;;;;;;20.28;58.35;100908.47;5125947;28;20020;-63
2022/08/26 00:53:29;;;;;;;0.30;0.30;;;;;;;20.26;58.70;100899.75;5126017;28;20035;-63
2022/08/26 00:56:02;;;;;;;0.20;0.20;;;;;;;20.22;58.78;100897.31;5125852;28;20038;-63
2022/08/26 00:58:32;;;;;;;0.20;0.20;;;;;;;20.16;59.38;100901.06;5125608;28;20547;-63
2022/08/26 01:00:58;;;;;;;0.40;0.40;;;;;;;20.11;59.35;100900.38;5125570;28;20110;-63
2022/08/26 01:03:25;;;;;;;0.20;0.20;;;;;;;20.05;60.01;100897.06;5125807;28;20038;-63
2022/08/26 01:05:55;;;;;;;0.82;0.82;;;;;;;20.02;60.06;100901.56;5125388;28;20023;-64
2022/08/26 01:08:22;;;;;;;0.20;0.20;;;;;;;19.96;60.00;100894.78;5125709;28;20031;-64
2022/08/26 01:10:47;;;;;;;0.28;0.28;;;;;;;19.99;60.27;100902.56;5125848;28;20028;-64
2022/08/26 01:13:13;;;;;;;0.20;0.20;;;;;;;19.99;60.28;100899.06;5125725;28;20137;-64
2022/08/26 01:15:54;;;;;;;0.20;0.20;;;;;;;19.97;60.96;100907.03;5126690;28;20114;-64
2022/08/26 01:18:20;;;;;;;0.30;0.30;;;;;;;19.93;60.82;100905.44;5129875;28;20031;-64
2022/08/26 01:21:10;;;;;;;0.20;0.20;;;;;;;19.86;60.90;100896.91;5129808;28;20067;-64
2022/08/26 01:23:40;;;;;;;0.20;0.20;;;;;;;19.91;60.82;100902.88;5129726;28;20047;-65
2022/08/26 01:26:08;;;;;;;0.20;0.20;;;;;;;19.90;60.95;100898.53;5129737;28;20051;-64
2022/08/26 01:28:35;;;;;;;0.20;0.20;;;;;;;19.89;61.11;100899.44;5129875;28;20040;-64
2022/08/26 01:31:02;;;;;;;0.20;0.20;;;;;;;19.88;61.36;100897.72;5129602;28;20016;-64
2022/08/26 01:33:42;;;;;;;0.20;0.20;;;;;;;19.88;61.75;100900.38;5129483;28;20471;-64
2022/08/26 01:36:07;;;;;;;0.20;0.20;;;;;;;19.85;62.55;100896.97;5129572;28;20447;-65
2022/08/26 01:38:33;;;;;;;0.20;0.20;;;;;;;19.81;62.51;100905.00;5129244;28;20024;-65
2022/08/26 01:40:59;;;;;;;0.20;0.20;;;;;;;19.78;63.10;100899.88;5129198;28;20027;-64
2022/08/26 01:43:26;;;;;;;0.20;0.20;;;;;;;19.75;63.60;100902.63;5129351;28;20049;-64
2022/08/26 01:45:55;;;;;;;0.20;0.20;;;;;;;19.73;63.61;100900.97;5129025;28;20515;-65
2022/08/26 01:48:27;;;;;;;0.25;0.25;;;;;;;19.70;63.34;100896.66;5129227;28;20028;-64
2022/08/26 01:50:52;;;;;;;0.38;0.38;;;;;;;19.70;63.87;100894.03;5129249;28;20439;-64
2022/08/26 01:53:20;;;;;;;0.30;0.30;;;;;;;19.66;63.88;100889.81;5129384;28;20034;-65
2022/08/26 01:55:49;;;;;;;0.30;0.30;;;;;;;19.65;64.28;100881.03;5129414;28;20023;-64
2022/08/26 01:58:20;;;;;;;0.55;0.55;;;;;;;19.63;64.27;100885.50;5128799;28;20045;-64
2022/08/26 02:00:46;;;;;;;7.00;1.80;;;;;;;19.61;64.31;100882.09;5128720;28;20091;-64
2022/08/26 02:03:17;;;;;;;0.20;0.20;;;;;;;19.60;64.60;100871.63;5128785;28;20035;-65
2022/08/26 02:05:55;;;;;;;0.20;0.20;;;;;;;19.57;64.72;100883.97;5110644;28;20030;-64
2022/08/26 02:08:34;;;;;;;0.20;0.20;;;;;;;19.57;64.59;100877.84;5128850;28;20035;-64
2022/08/26 02:11:00;;;;;;;0.40;0.40;;;;;;;19.56;65.06;100874.38;5128789;28;20041;-64
2022/08/26 02:13:28;;;;;;;0.20;0.20;;;;;;;19.54;65.34;100878.84;5128746;28;20043;-64
2022/08/26 02:15:54;;;;;;;0.55;0.52;;;;;;;19.49;65.48;100875.50;5128640;28;20015;-64
2022/08/26 02:18:21;;;;;;;0.28;0.28;;;;;;;19.46;66.02;100878.25;5128897;28;20502;-65
2022/08/26 02:20:47;;;;;;;0.22;0.22;;;;;;;19.40;65.84;100875.88;5128814;28;20030;-64
2022/08/26 02:23:12;;;;;;;0.20;0.20;;;;;;;19.44;65.85;100877.50;5128323;28;20019;-65
2022/08/26 02:26:01;;;;;;;0.20;0.20;;;;;;;19.41;66.22;100878.44;5128692;28;20016;-65
2022/08/26 02:28:33;;;;;;;0.20;0.20;;;;;;;19.38;66.26;100873.28;5127372;28;20073;-65
2022/08/26 02:30:58;;;;;;;0.30;0.30;;;;;;;19.38;66.30;100868.03;5128335;28;20022;-65
2022/08/26 02:33:23;;;;;;;0.20;0.20;;;;;;;19.35;66.36;100873.41;5128338;28;20095;-64
2022/08/26 02:35:49;;;;;;;0.20;0.20;;;;;;;19.31;66.12;100864.75;5128167;28;20023;-65
2022/08/26 02:38:14;;;;;;;0.28;0.28;;;;;;;19.31;65.88;100864.75;5128203;28;20019;-65
2022/08/26 02:40:41;;;;;;;0.20;0.20;;;;;;;19.29;65.63;100855.22;5128295;28;20024;-65
2022/08/26 02:43:07;;;;;;;0.20;0.20;;;;;;;19.29;65.72;100866.63;5128282;28;20024;-65
2022/08/26 02:45:33;;;;;;;0.20;0.20;;;;;;;19.28;65.54;100859.63;5127992;28;20099;-65
2022/08/26 02:48:07;;;;;;;0.20;0.20;;;;;;;19.30;65.13;100863.06;5128184;28;20030;-63
2022/08/26 02:50:33;;;;;;;13.55;3.30;;;;;;;19.28;65.34;100858.78;5128170;28;20037;-65
2022/08/26 02:52:59;;;;;;;0.20;0.20;;;;;;;19.25;64.74;100857.09;5128077;28;20032;-66
2022/08/26 02:55:24;;;;;;;0.20;0.20;;;;;;;19.25;64.63;100854.47;5127808;28;20034;-63
2022/08/26 02:57:50;;;;;;;0.20;0.20;;;;;;;19.24;64.81;100857.16;5127771;28;20024;-64
2022/08/26 03:00:16;;;;;;;1.05;1.05;;;;;;;19.19;64.80;100857.34;5127790;28;20409;-64
2022/08/26 03:02:41;;;;;;;0.20;0.20;;;;;;;19.17;64.76;100851.31;5109495;28;20028;-63
2022/08/26 03:05:07;;;;;;;0.20;0.20;;;;;;;19.16;64.80;100853.06;5127611;28;20526;-64
2022/08/26 03:07:33;;;;;;;0.50;0.50;;;;;;;19.12;64.83;100835.66;5127798;28;20016;-63
2022/08/26 03:09:59;;;;;;;0.20;0.20;;;;;;;19.08;64.60;100845.44;5127707;28;20390;-64
2022/08/26 03:12:25;;;;;;;0.30;0.30;;;;;;;19.02;65.00;100843.03;5127815;28;20016;-64
2022/08/26 03:14:50;;;;;;;0.20;0.20;;;;;;;19.02;65.10;100850.91;5127415;28;20038;-63
2022/08/26 03:17:16;;;;;;;0.20;0.20;;;;;;;18.98;65.21;100843.19;5127660;28;20023;-62
2022/08/26 03:19:41;;;;;;;0.20;0.20;;;;;;;18.95;65.22;100842.38;5127567;28;20024;-63
2022/08/26 03:22:08;;;;;;;0.20;0.20;;;;;;;18.81;65.89;100813.97;5127447;28;20035;-63
2022/08/26 03:24:33;;;;;;;0.20;0.20;;;;;;;18.89;65.87;100833.84;5127423;28;20034;-63
2022/08/26 03:27:00;;;;;;;0.43;0.40;;;;;;;18.88;65.97;100837.41;5127560;28;20075;-64
2022/08/26 03:32:10;;;;;;;0.20;0.20;;;;;;;18.81;65.83;100835.00;5127489;28;20054;-63
2022/08/26 03:34:36;;;;;;;0.20;0.20;;;;;;;18.81;65.97;100837.63;5127486;28;20019;-63
2022/08/26 03:37:01;;;;;;;0.20;0.20;;;;;;;18.80;66.39;100843.78;5127443;28;20020;-63
2022/08/26 03:39:27;;;;;;;0.20;0.20;;;;;;;18.79;66.12;100836.81;5126900;28;20213;-63
2022/08/26 03:41:54;;;;;;;0.20;0.20;;;;;;;18.81;66.11;100844.66;5127501;28;20097;-63
2022/08/26 03:44:20;;;;;;;0.30;0.30;;;;;;;18.79;66.35;100834.19;5127265;28;20044;-64
2022/08/26 03:46:45;;;;;;;0.20;0.20;;;;;;;18.80;66.50;100832.44;5127771;28;20035;-64
2022/08/26 03:49:11;;;;;;;0.30;0.30;;;;;;;18.78;66.32;100835.13;5112009;28;20020;-63
2022/08/26 03:51:37;;;;;;;0.57;0.57;;;;;;;18.74;66.38;100824.75;5137689;28;20082;-63
2022/08/26 03:54:03;;;;;;;0.20;0.20;;;;;;;18.66;66.46;100825.00;5130203;28;20059;-64
2022/08/26 03:56:29;;;;;;;0.20;0.20;;;;;;;18.74;66.71;100832.66;5127825;28;20031;-64
2022/08/26 03:58:55;;;;;;;0.20;0.20;;;;;;;18.72;66.68;100835.34;5127136;28;20049;-66
2022/08/26 04:01:20;;;;;;;0.43;0.43;;;;;;;18.69;67.12;100840.72;5126703;28;20079;-62
2022/08/26 04:03:58;;;;;;;0.60;0.60;;;;;;;18.68;67.19;100825.81;5126676;28;20019;-64
2022/08/26 04:06:36;;;;;;;0.20;0.20;;;;;;;18.63;67.04;100827.75;5126806;28;20019;-64
2022/08/26 04:09:08;;;;;;;0.28;0.28;;;;;;;18.56;67.51;100827.97;5126608;28;20019;-64
2022/08/26 04:11:34;;;;;;;0.30;0.30;;;;;;;18.54;67.69;100826.31;5126874;28;20461;-65
2022/08/26 04:14:03;;;;;;;0.20;0.20;;;;;;;18.51;67.80;100822.03;5126919;28;20080;-66
2022/08/26 04:16:29;;;;;;;0.20;0.20;;;;;;;18.46;67.90;100818.72;5126461;28;20024;-65
2022/08/26 04:18:56;;;;;;;0.55;0.55;;;;;;;18.47;68.20;100820.41;5126497;28;20038;-66
2022/08/26 04:21:22;;;;;;;0.20;0.20;;;;;;;18.37;68.61;100824.28;5126377;28;20374;-65
2022/08/26 04:23:48;;;;;;;0.22;0.22;;;;;;;18.41;68.66;100832.00;5107729;28;20055;-64
2022/08/26 04:26:15;;;;;;;0.30;0.30;;;;;;;18.39;68.50;100825.06;5126415;28;20026;-64
2022/08/26 04:28:41;;;;;;;0.75;0.75;;;;;;;18.36;69.00;100822.56;5126197;28;20027;-65
2022/08/26 04:31:11;;;;;;;0.20;0.20;;;;;;;18.35;69.17;100820.84;5126254;28;20027;-65
2022/08/26 04:33:36;;;;;;;0.20;0.20;;;;;;;18.29;69.34;100811.41;5126743;28;20034;-66
2022/08/26 04:36:03;;;;;;;0.20;0.20;;;;;;;18.31;69.17;100820.09;5126496;28;20079;-65
2022/08/26 04:38:29;;;;;;;0.20;0.20;;;;;;;18.26;69.60;100817.63;5126496;28;20023;-66
2022/08/26 04:40:55;;;;;;;3.22;1.95;;;;;;;18.27;69.58;100819.34;5126161;28;20429;-66
2022/08/26 04:43:20;;;;;;;0.20;0.20;;;;;;;18.33;69.37;100815.66;5126191;28;20046;-65
2022/08/26 04:45:46;;;;;;;0.20;0.20;;;;;;;18.36;69.29;100814.66;5125671;28;20122;-66
2022/08/26 04:48:11;;;;;;;0.20;0.20;;;;;;;18.36;69.68;100812.03;5125891;28;20024;-65
2022/08/26 04:50:37;;;;;;;0.30;0.30;;;;;;;18.37;69.71;100821.66;5125391;28;20083;-65
2022/08/26 04:53:03;;;;;;;0.20;0.20;;;;;;;18.35;69.60;100815.59;5126237;28;20027;-66
2022/08/26 04:55:29;;;;;;;0.30;0.30;;;;;;;18.32;69.70;100821.81;5125914;28;20091;-64
2022/08/26 04:57:55;;;;;;;0.30;0.30;;;;;;;18.36;70.06;100823.41;5125916;28;20019;-65
2022/08/26 05:00:21;;;;;;;0.20;0.20;;;;;;;18.36;69.67;100810.28;5125537;28;20038;-68
2022/08/26 05:02:47;;;;;;;0.30;0.30;;;;;;;18.48;69.52;100821.28;5125790;28;20023;-68
2022/08/26 05:05:12;;;;;;;0.20;0.20;;;;;;;18.48;69.51;100826.53;5107579;28;20016;-71
2022/08/26 05:07:39;;;;;;;0.20;0.20;;;;;;;18.52;69.36;100822.88;5125595;28;20080;-68
2022/08/26 05:10:05;;;;;;;5.50;4.82;;;;;;;18.56;69.47;100824.50;5125760;28;20072;-67
2022/08/26 05:12:31;;;;;;;0.20;0.20;;;;;;;18.59;69.06;100824.41;5125719;28;20027;-67
2022/08/26 05:14:57;;;;;;;0.20;0.20;;;;;;;18.64;68.79;100822.44;5125916;28;20395;-66
2022/08/26 05:17:22;;;;;;;0.20;0.20;;;;;;;18.62;69.00;100826.03;5125687;28;20024;-67
2022/08/26 05:19:49;;;;;;;0.63;0.63;;;;;;;18.62;69.12;100824.28;5125540;28;20023;-67
2022/08/26 05:22:16;;;;;;;0.22;0.22;;;;;;;18.60;69.50;100815.59;5125700;28;20049;-67
2022/08/26 05:24:42;;;;;;;0.20;0.20;;;;;;;18.83;69.34;100827.88;5125768;28;20046;-66
2022/08/26 05:27:08;;;;;;;0.40;0.40;;;;;;;19.10;69.49;100829.59;5125858;28;20030;-64
2022/08/26 05:29:33;;;;;;;0.20;0.20;;;;;;;19.46;67.92;100828.25;5125610;28;20087;-63
2022/08/26 05:32:00;;;;;;;0.55;0.55;;;;;;;19.61;67.26;100818.03;5125457;28;20053;-68
2022/08/26 05:34:26;;;;;;;0.20;0.20;;;;;;;19.54;66.48;100830.56;5125573;28;20079;-66
2022/08/26 05:36:51;;;;;;;0.50;0.50;;;;;;;19.42;66.51;100824.03;5105996;28;20034;-66
2022/08/26 05:39:17;;;;;;;0.20;0.20;;;;;;;19.42;67.14;100827.53;5124963;28;20039;-67
2022/08/26 05:41:42;;;;;;;0.30;0.30;;;;;;;19.43;67.12;100831.88;5125563;28;20031;-67
2022/08/26 05:44:11;;;;;;;0.40;0.40;;;;;;;19.62;67.33;100833.75;5125403;28;20024;-67
2022/08/26 05:46:38;;;;;;;0.20;0.20;;;;;;;20.13;67.42;100830.88;5125597;28;20039;-66
2022/08/26 05:49:06;;;;;;;0.20;0.20;;;;;;;20.73;67.43;100833.63;5125524;28;20039;-67
2022/08/26 05:51:32;;;;;;;0.20;0.20;;;;;;;21.33;66.57;100831.81;5125568;28;20015;-68
2022/08/26 05:53:57;;;;;;;0.20;0.20;;;;;;;21.71;65.38;100831.78;5107239;28;20088;-68
2022/08/26 05:56:26;;;;;;;0.85;0.85;;;;;;;21.80;63.72;100822.59;5125574;28;20031;-67
2022/08/26 05:58:53;;;;;;;0.73;0.73;;;;;;;21.78;62.26;100835.00;5125391;28;20019;-68
2022/08/26 06:01:21;;;;;;;0.40;0.40;;;;;;;21.70;62.46;100827.44;5125515;28;20020;-68
2022/08/26 06:03:50;;;;;;;1.90;1.30;;;;;;;21.60;62.24;100837.59;5129246;28;20019;-67
2022/08/26 06:06:25;;;;;;;0.93;0.93;;;;;;;21.41;61.33;100830.53;5129027;28;20019;-67
2022/08/26 06:08:51;;;;;;;0.40;0.40;;;;;;;21.02;61.47;100829.69;5129093;28;20073;-67
2022/08/26 06:11:20;;;;;;;0.20;0.20;;;;;;;20.81;61.04;100827.06;5129136;28;20020;-67
2022/08/26 06:13:46;;;;;;;0.52;0.52;;;;;;;20.37;62.33;100832.50;5129116;28;20270;-67
2022/08/26 06:16:14;;;;;;;0.30;0.30;;;;;;;20.15;62.82;100817.63;5110309;28;20122;-67
2022/08/26 06:18:42;;;;;;;0.20;0.20;;;;;;;20.18;63.28;100825.41;5128999;28;20023;-67
2022/08/26 06:21:26;;;;;;;0.20;0.20;;;;;;;20.11;63.20;100816.88;5128939;28;20035;-66
2022/08/26 06:26:40;;;;;;;0.30;0.30;;;;;;;19.78;64.32;100834.00;5129015;28;20080;-67
2022/08/26 06:29:06;;;;;;;0.20;0.20;;;;;;;19.71;64.75;100827.28;5128554;28;20016;-66
2022/08/26 06:31:34;;;;;;;0.38;0.38;;;;;;;19.68;64.92;100825.59;5128447;28;20020;-67
2022/08/26 06:34:00;;;;;;;0.20;0.20;;;;;;;19.90;64.74;100813.34;5110642;28;20019;-67
2022/08/26 06:36:28;;;;;;;0.85;0.85;;;;;;;19.91;64.65;100815.94;5128670;28;20499;-67
2022/08/26 06:38:57;;;;;;;0.55;0.55;;;;;;;19.90;64.92;100811.59;5128663;28;20077;-67
2022/08/26 06:41:23;;;;;;;0.20;0.20;;;;;;;19.93;64.69;100810.59;5128768;28;20070;-67
2022/08/26 06:43:49;;;;;;;0.35;0.35;;;;;;;19.91;64.59;100813.28;5128416;28;20467;-66
2022/08/26 06:46:18;;;;;;;0.28;0.28;;;;;;;19.84;64.99;100817.06;5128268;28;20047;-67
2022/08/26 06:48:44;;;;;;;0.20;0.20;;;;;;;19.79;65.47;100827.81;5128249;28;20019;-67
2022/08/26 06:51:16;;;;;;;0.20;0.20;;;;;;;19.84;65.71;100821.50;5128400;28;20045;-67
2022/08/26 06:53:44;;;;;;;0.20;0.20;;;;;;;19.89;65.72;100817.75;5128108;28;20443;-67
2022/08/26 06:56:10;;;;;;;0.20;0.20;;;;;;;19.97;65.55;100806.91;5128384;28;20020;-66
2022/08/26 06:58:37;;;;;;;0.20;0.20;;;;;;;20.10;65.49;100806.41;5128007;28;20020;-67
2022/08/26 07:01:24;;;;;;;7.13;2.20;;;;;;;20.34;64.96;100809.78;5127609;28;20020;-67
2022/08/26 07:03:53;;;;;;;0.52;0.52;;;;;;;20.51;64.46;100809.03;5127823;28;20027;-67
2022/08/26 07:06:20;;;;;;;0.20;0.20;;;;;;;20.61;64.27;100803.34;5128147;28;20130;-67
2022/08/26 07:08:50;;;;;;;0.20;0.20;;;;;;;20.81;64.21;100795.41;5127881;28;20023;-67
2022/08/26 07:11:17;;;;;;;0.20;0.20;;;;;;;21.33;63.71;100802.78;5127869;28;20020;-67
2022/08/26 07:13:43;;;;;;;0.82;0.82;;;;;;;21.96;62.43;100803.31;5127392;28;20024;-67
2022/08/26 07:16:11;;;;;;;0.20;0.20;;;;;;;22.23;60.82;100801.06;5127516;28;20102;-67
2022/08/26 07:18:37;;;;;;;0.20;0.20;;;;;;;22.59;59.89;100799.22;5127916;28;20073;-67
2022/08/26 07:21:06;;;;;;;0.20;0.20;;;;;;;22.75;59.04;100795.75;5127762;28;20024;-67
2022/08/26 07:23:33;;;;;;;0.20;0.20;;;;;;;22.60;57.83;100789.50;5109206;28;20033;-67
2022/08/26 07:26:03;;;;;;;0.25;0.25;;;;;;;22.36;58.57;100795.13;5127748;28;20480;-67
2022/08/26 07:28:28;;;;;;;0.30;0.30;;;;;;;22.31;58.73;100790.09;5127455;28;20441;-67
2022/08/26 07:30:54;;;;;;;0.10;0.10;;;;;;;22.29;58.47;100782.22;5127294;28;20490;-67
2022/08/26 07:33:19;;;;;;;1.17;0.88;;;;;;;22.36;58.63;100789.84;5127644;28;20039;-67
2022/08/26 07:35:45;;;;;;;0.10;0.10;;;;;;;22.72;58.69;100790.63;5127428;28;20041;-68
2022/08/26 07:38:12;;;;;;;0.20;0.20;;;;;;;23.23;56.72;100782.56;5127474;28;20023;-68
2022/08/26 07:40:37;;;;;;;0.25;0.25;;;;;;;23.31;56.29;100778.66;5127414;28;20087;-71
2022/08/26 07:43:03;;;;;;;0.10;0.10;;;;;;;23.38;56.48;100777.34;5127343;28;20049;-71
2022/08/26 07:45:28;;;;;;;0.20;0.20;;;;;;;23.50;56.57;100786.41;5126795;28;20164;-70
2022/08/26 07:47:54;;;;;;;4.90;0.85;;;;;;;23.49;56.14;100774.97;5127058;28;20032;-71
2022/08/26 07:50:21;;;;;;;0.20;0.20;;;;;;;23.61;55.82;100778.69;5127439;28;20065;-70
2022/08/26 07:52:47;;;;;;;0.20;0.20;;;;;;;23.81;55.88;100779.34;5127425;28;20020;-70
2022/08/26 07:55:13;;;;;;;0.10;0.10;;;;;;;24.22;55.76;100771.66;5108913;28;20363;-71
2022/08/26 07:57:39;;;;;;;0.10;0.10;;;;;;;24.70;55.40;100782.03;5127044;28;20467;-71
2022/08/26 08:00:08;;;;;;;0.20;0.20;;;;;;;25.38;55.47;100774.22;5126875;28;20035;-71
2022/08/26 08:02:34;;;;;;;0.10;0.10;;;;;;;25.70;51.75;100775.72;5126847;28;20448;-70
2022/08/26 08:04:59;;;;;;;0.10;0.10;;;;;;;25.49;51.68;100770.88;5126766;28;20463;-71
2022/08/26 08:07:26;;;;;;;0.20;0.20;;;;;;;25.18;51.50;100764.88;5126947;28;20031;-71
2022/08/26 08:09:52;;;;;;;0.10;0.10;;;;;;;24.95;51.80;100764.56;5108478;28;20032;-71
2022/08/26 08:12:18;;;;;;;0.20;0.20;;;;;;;25.15;51.84;100766.88;5126895;28;20441;-71
2022/08/26 08:14:45;;;;;;;0.20;0.20;;;;;;;25.01;51.62;100766.00;5126770;28;20023;-71
2022/08/26 08:17:14;;;;;;;0.35;0.35;;;;;;;24.82;51.38;100775.09;5126586;28;20027;-71
2022/08/26 08:19:40;;;;;;;0.20;0.20;;;;;;;24.93;51.72;100779.75;5126789;28;20033;-71
2022/08/26 08:22:06;;;;;;;0.25;0.25;;;;;;;24.96;51.04;100768.06;5126609;28;20027;-69
2022/08/26 08:24:32;;;;;;;0.20;0.20;;;;;;;24.85;50.94;100758.09;5126339;28;20035;-72
2022/08/26 08:26:59;;;;;;;0.20;0.20;;;;;;;24.81;52.04;100772.53;5125993;28;20483;-71
2022/08/26 08:29:28;;;;;;;0.20;0.20;;;;;;;25.08;50.76;100782.38;5126334;28;20020;-72
2022/08/26 08:31:54;;;;;;;0.15;0.15;;;;;;;25.38;50.45;100762.75;5107715;28;20036;-72
2022/08/26 08:34:19;;;;;;;0.75;0.75;;;;;;;25.94;49.66;100764.38;5126376;28;20077;-71
2022/08/26 08:36:45;;;;;;;0.10;0.10;;;;;;;26.49;48.58;100766.00;5126312;28;20020;-71
2022/08/26 08:39:11;;;;;;;0.20;0.20;;;;;;;26.78;47.79;100768.41;5126061;28;20035;-71
2022/08/26 08:41:51;;;;;;;0.20;0.20;;;;;;;26.98;46.13;100760.81;5126370;28;20083;-71
2022/08/26 08:44:19;;;;;;;0.20;0.20;;;;;;;26.87;46.76;100774.88;5126102;28;20064;-72
2022/08/26 08:46:53;;;;;;;0.20;0.20;;;;;;;27.02;46.85;100764.09;5126311;28;20054;-72
2022/08/26 08:49:19;;;;;;;0.17;0.17;;;;;;;26.89;46.88;100772.09;5126130;28;20020;-72
2022/08/26 08:51:58;;;;;;;0.10;0.10;;;;;;;26.80;47.31;100760.31;5126279;28;20062;-72
2022/08/26 08:54:25;;;;;;;0.10;0.10;;;;;;;27.13;47.34;100768.63;5126243;28;20076;-72
2022/08/26 08:56:56;;;;;;;0.20;0.20;;;;;;;27.79;45.36;100754.03;5126377;28;20027;-73
2022/08/26 08:59:25;;;;;;;0.20;0.20;;;;;;;28.18;45.23;100759.91;5126128;28;20083;-72
2022/08/26 09:01:53;;;;;;;0.20;0.20;;;;;;;28.80;44.64;100748.88;5125722;28;20028;-72
2022/08/26 09:04:21;;;;;;;0.10;0.10;;;;;;;29.74;43.64;100753.81;5126113;28;20035;-73
2022/08/26 09:06:52;;;;;;;0.10;0.10;;;;;;;29.52;41.13;100747.59;5107899;28;20023;-71
2022/08/26 09:09:23;;;;;;;0.20;0.20;;;;;;;28.07;42.90;100746.56;5126054;28;20034;-71
2022/08/26 09:11:48;;;;;;;0.15;0.15;;;;;;;27.42;44.85;100747.84;5126102;28;20024;-71
2022/08/26 09:14:14;;;;;;;1.27;1.08;;;;;;;27.58;44.55;100738.69;5125975;28;20126;-72
2022/08/26 09:17:05;;;;;;;0.20;0.20;;;;;;;28.20;43.31;100743.78;5125738;28;20024;-72
2022/08/26 09:19:53;;;;;;;0.10;0.10;;;;;;;28.79;42.60;100736.50;5121622;28;20046;-71
2022/08/26 09:22:34;;;;;;;0.10;0.10;;;;;;;29.09;41.36;100728.78;5125919;28;20058;-70
2022/08/26 09:25:00;;;;;;;;;;;;;;;28.90;40.67;100729.44;5126284;28;20075;-70
2022/08/26 09:27:37;;;;;;;0.20;0.20;;;;;;;28.44;42.19;100735.69;5125828;28;19919;-71
2022/08/26 09:30:04;;;;;;;0.10;0.10;;;;;;;27.81;42.69;100731.59;5125810;28;20152;-72
2022/08/26 09:32:30;;;;;;;0.20;0.20;;;;;;;27.44;43.99;100724.59;5125421;28;20024;-71
2022/08/26 09:35:04;;;;;;;0.20;0.20;;;;;;;28.02;43.51;100728.25;5125835;28;20080;-72
2022/08/26 09:37:43;;;;;;;0.52;0.52;;;;;;;28.93;43.15;100726.53;5109734;28;20054;-72
2022/08/26 09:40:16;;;;;;;0.10;0.10;;;;;;;29.37;38.91;100722.97;5129559;28;20020;-70
2022/08/26 09:42:41;;;;;;;0.80;0.80;;;;;;;29.19;38.57;100718.19;5129853;28;20019;-71
2022/08/26 09:45:09;;;;;;;0.20;0.20;;;;;;;28.92;38.81;100719.47;5129595;28;20040;-71
2022/08/26 09:47:43;;;;;;;0.30;0.30;;;;;;;28.88;39.11;100716.22;5129457;28;20038;-71
2022/08/26 09:50:29;;;;;;;0.10;0.10;;;;;;;28.95;39.61;100714.75;5129382;28;20023;-70
2022/08/26 09:53:15;;;;;;;0.25;0.25;;;;;;;29.17;39.49;100701.44;5129539;28;20027;-71
2022/08/26 09:55:46;;;;;;;0.10;0.10;;;;;;;29.42;38.80;100710.06;5129486;28;20016;-71
2022/08/26 09:58:32;;;;;;;0.20;0.20;;;;;;;29.60;38.40;100705.03;5129372;28;20024;-71
2022/08/26 10:01:02;;;;;;;1.23;1.05;;;;;;;29.64;38.88;100706.47;5129127;28;20035;-69
2022/08/26 10:03:34;;;;;;;0.22;0.22;;;;;;;30.15;39.54;100695.00;5129442;28;20042;-70
2022/08/26 10:06:03;;;;;;;0.10;0.10;;;;;;;30.18;38.21;100700.09;5129261;28;20030;-70
2022/08/26 10:08:41;;;;;;;0.20;0.20;;;;;;;30.21;38.22;100704.38;5129145;28;20016;-70
2022/08/26 10:11:17;;;;;;;0.20;0.20;;;;;;;30.67;37.26;100702.94;5129128;28;20099;-70
2022/08/26 10:13:47;;;;;;;0.10;0.10;;;;;;;30.54;36.09;100692.47;5129158;28;20023;-69
2022/08/26 10:16:18;;;;;;;0.17;0.17;;;;;;;29.16;37.38;100703.25;5128819;28;20068;-70
2022/08/26 10:18:52;;;;;;;0.10;0.10;;;;;;;28.06;39.57;100694.19;5128904;28;20027;-69
2022/08/26 10:21:29;;;;;;;0.17;0.17;;;;;;;27.96;40.63;100697.56;5129078;28;20034;-70
2022/08/26 10:24:00;;;;;;;0.10;0.10;;;;;;;28.53;40.27;100698.56;5129184;28;20075;-69
2022/08/26 10:26:44;;;;;;;0.10;0.10;;;;;;;29.37;39.03;100696.25;5129239;28;20110;-70
2022/08/26 10:29:22;;;;;;;0.10;0.10;;;;;;;30.01;38.88;100685.53;5109811;28;20038;-70
2022/08/26 10:31:53;;;;;;;0.15;0.15;;;;;;;30.23;37.38;100697.03;5128184;28;20041;-71
2022/08/26 10:34:19;;;;;;;0.10;0.10;;;;;;;30.36;37.65;100681.59;5128450;28;20028;-69
2022/08/26 10:36:55;;;;;;;0.20;0.20;;;;;;;30.62;37.82;100691.81;5128570;28;20046;-72
2022/08/26 10:39:40;;;;;;;0.20;0.20;;;;;;;30.97;36.74;100691.47;5109986;28;20031;-72
2022/08/26 10:42:12;;;;;;;0.10;0.10;;;;;;;30.22;37.92;100684.66;5128786;28;20031;-71
2022/08/26 10:44:40;;;;;;;0.10;0.10;;;;;;;30.71;37.55;100683.91;5128362;28;20126;-73
2022/08/26 10:47:15;;;;;;;0.10;0.10;;;;;;;30.80;36.63;100683.09;5128277;28;20029;-73
2022/08/26 10:49:44;;;;;;;0.10;0.10;;;;;;;30.49;37.03;100677.81;5127531;28;20035;-72
2022/08/26 10:52:39;;;;;;;0.10;0.10;;;;;;;30.17;37.41;100674.31;5128617;28;20023;-73
2022/08/26 10:55:18;;;;;;;0.10;0.10;;;;;;;29.12;37.94;100672.44;5127637;28;20040;-72
2022/08/26 10:58:05;;;;;;;0.10;0.10;;;;;;;28.06;39.55;100670.16;5128260;28;20031;-72
2022/08/26 11:03:28;;;;;;;0.10;0.10;;;;;;;28.06;39.83;100664.81;5127752;28;20026;-71
2022/08/26 11:06:18;;;;;;;0.20;0.20;;;;;;;27.78;40.04;100669.66;5128058;28;20028;-71
2022/08/26 11:08:51;;;;;;;0.10;0.10;;;;;;;27.15;40.92;100668.13;5109611;28;20027;-71
2022/08/26 11:11:39;;;;;;;0.10;0.10;;;;;;;26.70;41.66;100667.78;5128159;28;20023;-70
2022/08/26 11:14:29;;;;;;;0.30;0.30;;;;;;;27.83;41.28;100665.66;5128019;28;20028;-70
2022/08/26 11:16:56;;;;;;;0.52;0.52;;;;;;;28.85;39.78;100667.53;5127710;28;20019;-70
2022/08/26 11:19:40;;;;;;;0.10;0.10;;;;;;;29.32;38.61;100665.41;5109285;28;20027;-70
2022/08/26 11:22:25;;;;;;;0.10;0.10;;;;;;;28.15;39.75;100663.25;5127646;28;20024;-70
2022/08/26 11:24:53;;;;;;;1.77;0.65;;;;;;;27.18;41.43;100660.75;5127585;28;20059;-71
2022/08/26 11:27:24;;;;;;;0.10;0.10;;;;;;;26.44;42.70;100667.03;5127493;28;20059;-70
2022/08/26 11:30:01;;;;;;;0.10;0.10;;;;;;;26.02;43.68;100668.13;5127487;28;20030;-70
2022/08/26 11:32:32;;;;;;;1.13;1.05;;;;;;;25.79;44.91;100664.38;5127210;28;20058;-70
2022/08/26 11:34:59;;;;;;;0.10;0.10;;;;;;;26.72;43.85;100657.00;5109372;28;20035;-71
2022/08/26 11:37:32;;;;;;;0.10;0.10;;;;;;;27.04;42.64;100664.47;5127415;28;20035;-71
2022/08/26 11:39:57;;;;;;;0.10;0.10;;;;;;;26.61;43.22;100652.47;5127451;28;20050;-71
2022/08/26 11:42:41;;;;;;;0.20;0.20;;;;;;;26.26;43.81;100648.72;5109435;28;20015;-70